createdAt,value
2022-07-29T00:03:04.988Z,19.83
2022-07-29T00:07:07.197Z,19.97
2022-07-29T00:11:09.688Z,20.16
2022-07-29T00:15:11.835Z,20.28
2022-07-29T00:19:13.889Z,20.36
2022-07-29T00:23:16.172Z,20.36
2022-07-29T00:27:18.969Z,20.28
2022-07-29T00:31:21.024Z,20.17
2022-07-29T00:35:41.703Z,20.08
2022-07-29T00:39:43.923Z,19.94
2022-07-29T00:43:46.485Z,19.82
2022-07-29T00:47:48.695Z,19.86
2022-07-29T00:51:51.002Z,19.86
2022-07-29T00:55:55.695Z,19.91
2022-07-29T00:59:57.763Z,19.90
2022-07-29T01:03:59.810Z,19.90
2022-07-29T01:08:03.479Z,19.75
2022-07-29T01:12:06.130Z,19.72
2022-07-29T01:16:25.804Z,19.69
2022-07-29T01:21:04.681Z,19.72
2022-07-29T01:25:27.871Z,19.77
2022-07-29T01:29:38.657Z,19.74
2022-07-29T01:33:49.400Z,19.63
2022-07-29T01:37:58.584Z,19.41
2022-07-29T01:42:10.944Z,19.41
2022-07-29T01:46:18.668Z,19.47
2022-07-29T01:50:26.914Z,19.54
2022-07-29T01:54:38.372Z,19.64
2022-07-29T01:58:44.703Z,19.70
2022-07-29T02:02:48.801Z,19.72
2022-07-29T02:06:55.320Z,19.65
2022-07-29T02:10:58.995Z,19.62
2022-07-29T02:15:03.975Z,19.59
2022-07-29T02:19:09.601Z,19.48
2022-07-29T02:23:13.712Z,19.34
2022-07-29T02:27:16.367Z,19.31
2022-07-29T02:31:22.710Z,19.29
2022-07-29T02:35:25.724Z,19.30
2022-07-29T02:39:30.937Z,19.31
2022-07-29T02:43:34.763Z,19.34
2022-07-29T02:47:48.536Z,19.35
2022-07-29T02:51:55.656Z,19.36
2022-07-29T02:56:00.432Z,19.44
2022-07-29T03:00:07.550Z,19.59
2022-07-29T03:04:12.442Z,19.65
2022-07-29T03:08:16.898Z,19.51
2022-07-29T03:12:19.306Z,19.44
2022-07-29T03:16:23.068Z,19.41
2022-07-29T03:20:25.658Z,19.41
2022-07-29T03:24:35.630Z,19.33
2022-07-29T03:28:37.671Z,19.17
2022-07-29T03:32:42.451Z,19.04
2022-07-29T03:36:47.031Z,19.02
2022-07-29T03:41:01.652Z,19.08
2022-07-29T03:45:08.137Z,19.11
2022-07-29T03:49:12.254Z,19.08
2022-07-29T03:53:14.721Z,18.46
2022-07-29T03:57:17.311Z,17.61
2022-07-29T04:01:20.936Z,17.61
2022-07-29T04:05:23.010Z,17.87
2022-07-29T04:09:25.088Z,18.05
2022-07-29T04:13:27.266Z,18.01
2022-07-29T04:17:29.283Z,17.97
2022-07-29T04:21:31.334Z,18.04
2022-07-29T04:25:33.396Z,18.07
2022-07-29T04:29:35.566Z,18.04
2022-07-29T04:33:37.652Z,17.99
2022-07-29T04:37:39.669Z,17.91
2022-07-29T04:41:41.731Z,17.77
2022-07-29T04:45:45.046Z,17.58
2022-07-29T04:49:47.097Z,17.35
2022-07-29T04:53:49.141Z,17.14
2022-07-29T04:57:51.164Z,17.21
2022-07-29T05:01:53.297Z,17.27
2022-07-29T05:05:55.532Z,17.23
2022-07-29T05:09:57.900Z,17.44
2022-07-29T05:13:59.997Z,19.22
2022-07-29T05:18:02.677Z,22.02
2022-07-29T05:22:04.766Z,22.55
2022-07-29T05:26:06.766Z,23.51
2022-07-29T05:30:09.562Z,25.70
2022-07-29T05:34:11.906Z,27.59
2022-07-29T05:38:13.912Z,29.32
2022-07-29T05:42:15.928Z,30.50
2022-07-29T05:46:18.073Z,31.37
2022-07-29T05:50:20.414Z,31.99
2022-07-29T05:54:22.486Z,32.41
2022-07-29T05:58:24.483Z,33.06
2022-07-29T06:02:26.700Z,33.79
2022-07-29T06:06:28.754Z,34.57
2022-07-29T06:10:30.791Z,34.89
2022-07-29T06:14:33.567Z,34.85
2022-07-29T06:18:36.003Z,35.79
2022-07-29T06:22:38.019Z,36.24
2022-07-29T06:26:40.819Z,36.37
2022-07-29T06:30:42.902Z,36.54
2022-07-29T06:34:48.871Z,36.83
2022-07-29T06:38:52.039Z,36.78
2022-07-29T06:42:54.419Z,36.70
2022-07-29T06:46:57.037Z,37.20
2022-07-29T06:50:59.934Z,37.17
2022-07-29T06:55:01.951Z,37.67
2022-07-29T06:59:05.101Z,38.18
2022-07-29T07:03:07.113Z,38.30
2022-07-29T07:07:09.153Z,38.50
2022-07-29T07:11:11.214Z,38.76
2022-07-29T07:15:13.251Z,34.80
2022-07-29T07:19:15.413Z,30.85
2022-07-29T07:23:17.528Z,28.30
2022-07-29T07:27:19.574Z,26.31
2022-07-29T07:31:21.800Z,25.01
2022-07-29T07:35:23.903Z,24.55
2022-07-29T07:39:27.060Z,24.42
2022-07-29T07:43:29.230Z,24.43
2022-07-29T07:47:31.435Z,23.97
2022-07-29T07:51:36.295Z,23.70
2022-07-29T08:00:06.004Z,23.60
2022-07-29T08:04:14.689Z,23.64
2022-07-29T08:08:17.019Z,23.67
2022-07-29T08:12:19.041Z,23.87
2022-07-29T08:16:21.461Z,24.10
2022-07-29T08:20:23.665Z,24.40
2022-07-29T08:24:44.163Z,24.91
2022-07-29T08:28:49.545Z,25.12
2022-07-29T08:32:55.089Z,24.82
2022-07-29T08:36:58.118Z,24.59
2022-07-29T08:41:01.924Z,24.86
2022-07-29T08:45:05.843Z,24.84
2022-07-29T08:49:08.156Z,24.93
2022-07-29T08:53:15.223Z,25.11
2022-07-29T08:57:17.485Z,25.07
2022-07-29T09:01:35.787Z,25.06
2022-07-29T09:05:47.520Z,25.05
2022-07-29T09:09:50.290Z,25.32
2022-07-29T09:13:52.583Z,25.43
2022-07-29T09:17:56.289Z,25.17
2022-07-29T09:22:03.242Z,25.23
2022-07-29T09:26:07.144Z,25.49
2022-07-29T09:30:11.595Z,25.60
2022-07-29T09:34:17.427Z,25.44
2022-07-29T09:38:19.534Z,25.38
2022-07-29T09:42:33.373Z,25.52
2022-07-29T09:46:35.739Z,25.55
2022-07-29T09:54:43.029Z,25.41
2022-07-29T09:58:45.076Z,25.53
2022-07-29T10:02:48.318Z,25.81
2022-07-29T10:07:05.082Z,26.11
2022-07-29T10:11:18.798Z,26.23
2022-07-29T10:15:23.034Z,26.40
2022-07-29T10:19:25.530Z,26.45
2022-07-29T10:23:30.301Z,26.38
2022-07-29T10:27:52.046Z,26.42
2022-07-29T10:32:06.013Z,26.39
2022-07-29T10:36:36.514Z,26.65
2022-07-29T10:41:32.439Z,26.37
2022-07-29T10:45:50.227Z,26.28
2022-07-29T10:50:01.359Z,26.52
2022-07-29T10:54:06.538Z,26.70
2022-07-29T10:58:24.507Z,26.92
2022-07-29T11:02:42.150Z,26.72
2022-07-29T11:07:11.039Z,26.81
2022-07-29T11:11:32.113Z,27.13
2022-07-29T11:15:57.339Z,27.46
2022-07-29T11:20:38.257Z,27.80
2022-07-29T11:24:50.275Z,27.99
2022-07-29T11:29:15.973Z,27.72
2022-07-29T11:33:54.037Z,27.66
2022-07-29T11:38:31.647Z,27.84
2022-07-29T11:42:37.104Z,27.72
2022-07-29T11:46:54.042Z,27.60
2022-07-29T11:50:58.354Z,27.80
2022-07-29T11:55:09.985Z,27.77
2022-07-29T11:59:15.312Z,27.79
2022-07-29T12:03:33.428Z,27.73
2022-07-29T12:07:40.948Z,27.61
2022-07-29T12:11:45.040Z,27.51
2022-07-29T12:16:00.188Z,27.70
2022-07-29T12:20:05.453Z,28.05
2022-07-29T12:24:09.542Z,28.36
2022-07-29T12:28:14.379Z,28.25
2022-07-29T12:32:36.849Z,28.06
2022-07-29T12:36:39.001Z,28.11
2022-07-29T12:40:41.354Z,28.12
2022-07-29T12:44:48.116Z,28.12
2022-07-29T12:48:57.516Z,28.12
2022-07-29T12:53:11.072Z,28.26
2022-07-29T12:57:19.867Z,28.32
2022-07-29T13:01:22.334Z,28.20
2022-07-29T13:05:25.349Z,28.30
2022-07-29T13:09:38.110Z,28.37
2022-07-29T13:14:05.640Z,28.48
2022-07-29T13:18:32.118Z,28.47
2022-07-29T13:22:34.160Z,28.44
2022-07-29T13:26:40.858Z,28.48
2022-07-29T13:30:44.460Z,28.37
2022-07-29T13:34:46.931Z,28.23
2022-07-29T13:38:49.010Z,27.98
2022-07-29T13:42:51.255Z,27.69
2022-07-29T13:46:53.431Z,27.41
2022-07-29T13:50:55.512Z,27.25
2022-07-29T13:54:57.871Z,27.14
2022-07-29T13:58:59.862Z,27.18
2022-07-29T14:03:01.959Z,27.20
2022-07-29T14:07:04.551Z,27.15
2022-07-29T14:11:06.803Z,27.07
2022-07-29T14:15:09.559Z,27.03
2022-07-29T14:19:11.908Z,26.94
2022-07-29T14:23:14.370Z,26.73
2022-07-29T14:27:18.477Z,26.47
2022-07-29T14:31:20.673Z,26.19
2022-07-29T14:35:22.798Z,25.82
2022-07-29T14:39:24.877Z,25.43
2022-07-29T14:43:35.606Z,25.11
2022-07-29T14:47:38.785Z,24.86
2022-07-29T14:51:40.804Z,24.61
2022-07-29T14:55:42.936Z,24.50
2022-07-29T14:59:44.985Z,24.45
2022-07-29T15:03:47.066Z,24.43
2022-07-29T15:07:49.100Z,24.58
2022-07-29T15:11:51.154Z,24.86
2022-07-29T15:15:57.007Z,24.96
2022-07-29T15:20:01.852Z,24.77
2022-07-29T15:24:04.123Z,24.62
2022-07-29T15:28:08.020Z,24.53
2022-07-29T15:32:10.936Z,24.59
2022-07-29T15:36:25.434Z,24.52
2022-07-29T15:40:37.100Z,24.51
2022-07-29T15:44:39.197Z,24.62
2022-07-29T15:48:41.343Z,24.69
2022-07-29T15:52:43.488Z,24.32
2022-07-29T15:56:45.506Z,24.39
2022-07-29T16:00:47.808Z,24.42
2022-07-29T16:04:49.951Z,24.37
2022-07-29T16:08:52.031Z,24.37
2022-07-29T16:12:54.073Z,24.38
2022-07-29T16:16:56.819Z,24.38
2022-07-29T16:20:59.269Z,24.38
2022-07-29T16:25:01.500Z,24.34
2022-07-29T16:29:04.593Z,24.32
2022-07-29T16:33:08.489Z,24.37
2022-07-29T16:37:10.683Z,24.48
2022-07-29T16:41:13.390Z,24.58
2022-07-29T16:45:21.241Z,24.84
2022-07-29T16:49:23.609Z,25.04
2022-07-29T16:53:29.871Z,25.05
2022-07-29T16:57:32.566Z,25.05
2022-07-29T17:01:34.586Z,25.09
2022-07-29T17:05:52.432Z,24.83
2022-07-29T17:10:00.582Z,24.59
2022-07-29T17:14:05.361Z,24.46
2022-07-29T17:18:12.242Z,24.26
2022-07-29T17:22:19.317Z,24.03
2022-07-29T17:26:21.768Z,23.91
2022-07-29T17:30:23.817Z,23.85
2022-07-29T17:34:25.850Z,23.81
2022-07-29T17:38:27.900Z,23.78
2022-07-29T17:42:29.939Z,23.74
2022-07-29T17:46:32.290Z,23.67
2022-07-29T17:50:34.467Z,23.62
2022-07-29T17:54:36.796Z,23.58
2022-07-29T17:58:39.419Z,23.49
2022-07-29T18:02:41.490Z,23.44
2022-07-29T18:06:43.535Z,23.43
2022-07-29T18:10:46.485Z,23.38
2022-07-29T18:14:48.490Z,23.34
2022-07-29T18:18:50.522Z,23.29
2022-07-29T18:22:53.008Z,23.25
2022-07-29T18:26:56.361Z,23.25
2022-07-29T18:30:59.773Z,23.27
2022-07-29T18:35:02.774Z,23.20
2022-07-29T18:39:04.847Z,23.17
2022-07-29T18:43:07.066Z,23.14
2022-07-29T18:47:09.062Z,23.14
2022-07-29T18:51:14.080Z,23.05
2022-07-29T18:55:16.104Z,22.93
2022-07-29T18:59:20.161Z,22.86
2022-07-29T19:03:22.204Z,22.74
2022-07-29T19:07:26.708Z,22.55
2022-07-29T19:11:28.864Z,22.42
2022-07-29T19:15:30.882Z,22.31
2022-07-29T19:19:33.182Z,22.24
2022-07-29T19:24:02.474Z,22.16
2022-07-29T19:27:57.330Z,22.14
2022-07-29T19:32:00.433Z,21.93
2022-07-29T19:36:03.557Z,21.59
2022-07-29T19:40:06.909Z,21.36
2022-07-29T19:44:08.977Z,21.18
2022-07-29T19:48:10.986Z,21.05
2022-07-29T19:52:14.141Z,21.10
2022-07-29T19:56:16.399Z,21.15
2022-07-29T20:00:21.049Z,21.24
2022-07-29T20:04:23.244Z,21.33
2022-07-29T20:08:25.661Z,21.35
2022-07-29T20:12:27.801Z,21.41
2022-07-29T20:16:29.891Z,21.43
2022-07-29T20:20:31.966Z,21.45
2022-07-29T20:24:34.225Z,21.29
2022-07-29T20:28:37.055Z,21.19
2022-07-29T20:32:40.263Z,21.21
2022-07-29T20:36:42.572Z,21.34
2022-07-29T20:40:44.701Z,21.42
2022-07-29T20:44:46.888Z,21.47
2022-07-29T20:48:48.975Z,21.52
2022-07-29T20:52:51.816Z,21.46
2022-07-29T20:56:54.029Z,21.41
2022-07-29T21:00:56.390Z,21.09
2022-07-29T21:04:58.414Z,20.98
2022-07-29T21:09:01.097Z,20.97
2022-07-29T21:13:03.187Z,20.89
2022-07-29T21:17:07.136Z,20.73
2022-07-29T21:21:09.393Z,20.58
2022-07-29T21:25:12.003Z,20.31
2022-07-29T21:29:14.025Z,19.99
2022-07-29T21:33:16.076Z,19.92
2022-07-29T21:37:18.160Z,19.90
2022-07-29T21:41:21.805Z,19.93
2022-07-29T21:45:23.859Z,19.90
2022-07-29T21:49:25.967Z,19.77
2022-07-29T21:53:28.273Z,19.70
2022-07-29T21:57:30.292Z,19.66
2022-07-29T22:01:39.127Z,19.52
2022-07-29T22:05:41.646Z,19.25
2022-07-29T22:09:43.663Z,19.14
2022-07-29T22:13:45.739Z,19.08
2022-07-29T22:17:47.879Z,19.00
2022-07-29T22:21:49.915Z,19.01
2022-07-29T22:25:53.981Z,19.08
2022-07-29T22:29:56.010Z,19.17
2022-07-29T22:33:58.120Z,19.18
2022-07-29T22:38:00.168Z,19.14
2022-07-29T22:42:02.208Z,19.05
2022-07-29T22:46:04.291Z,19.00
2022-07-29T22:50:06.729Z,18.77
2022-07-29T22:54:08.839Z,18.69
2022-07-29T22:58:10.967Z,18.73
2022-07-29T23:02:13.156Z,18.84
2022-07-29T23:06:15.288Z,18.96
2022-07-29T23:10:17.493Z,18.77
2022-07-29T23:14:19.539Z,18.56
2022-07-29T23:18:21.616Z,18.37
2022-07-29T23:22:23.718Z,18.26
2022-07-29T23:26:25.789Z,18.32
2022-07-29T23:30:28.513Z,18.44
2022-07-29T23:34:30.589Z,18.50
2022-07-29T23:38:32.783Z,18.57
2022-07-29T23:42:34.885Z,18.58
2022-07-29T23:46:37.008Z,18.57
2022-07-29T23:50:39.128Z,18.47
2022-07-29T23:54:41.285Z,18.39
2022-07-29T23:58:43.324Z,18.35
